sensor_id;sensor_type;location;lat;lon;timestamp;temperature;humidity
9223;DHT22;7557;51.698;3.942;2023-09-30T00:01:15;16.30;99.90
9223;DHT22;7557;51.698;3.942;2023-09-30T00:03:44;16.30;99.90
9223;DHT22;7557;51.698;3.942;2023-09-30T00:06:11;16.30;99.90
9223;DHT22;7557;51.698;3.942;2023-09-30T00:08:40;16.20;99.90
9223;DHT22;7557;51.698;3.942;2023-09-30T00:11:09;16.20;99.90
9223;DHT22;7557;51.698;3.942;2023-09-30T00:13:36;16.20;99.90
9223;DHT22;7557;51.698;3.942;2023-09-30T00:16:04;16.20;99.90
9223;DHT22;7557;51.698;3.942;2023-09-30T00:18:31;16.20;99.90
9223;DHT22;7557;51.698;3.942;2023-09-30T00:20:58;16.10;99.90
9223;DHT22;7557;51.698;3.942;2023-09-30T00:23:25;16.20;99.90
9223;DHT22;7557;51.698;3.942;2023-09-30T00:25:54;16.20;99.90
9223;DHT22;7557;51.698;3.942;2023-09-30T00:28:21;16.10;99.90
9223;DHT22;7557;51.698;3.942;2023-09-30T00:30:49;16.20;99.90
9223;DHT22;7557;51.698;3.942;2023-09-30T00:33:19;16.20;99.90
9223;DHT22;7557;51.698;3.942;2023-09-30T00:35:46;16.20;99.90
9223;DHT22;7557;51.698;3.942;2023-09-30T00:38:13;16.10;99.90
9223;DHT22;7557;51.698;3.942;2023-09-30T00:40:47;16.10;99.90
9223;DHT22;7557;51.698;3.942;2023-09-30T00:43:20;16.10;99.90
9223;DHT22;7557;51.698;3.942;2023-09-30T00:46:06;16.10;99.90
9223;DHT22;7557;51.698;3.942;2023-09-30T00:48:34;16.00;99.90
9223;DHT22;7557;51.698;3.942;2023-09-30T00:51:01;16.00;99.90
9223;DHT22;7557;51.698;3.942;2023-09-30T00:53:29;15.90;99.90
9223;DHT22;7557;51.698;3.942;2023-09-30T00:55:57;15.90;99.90
9223;DHT22;7557;51.698;3.942;2023-09-30T00:58:27;15.90;99.90
9223;DHT22;7557;51.698;3.942;2023-09-30T01:00:57;16.00;99.90
9223;DHT22;7557;51.698;3.942;2023-09-30T01:03:25;15.90;99.90
9223;DHT22;7557;51.698;3.942;2023-09-30T01:05:53;16.00;99.90
9223;DHT22;7557;51.698;3.942;2023-09-30T01:08:20;15.90;99.90
9223;DHT22;7557;51.698;3.942;2023-09-30T01:10:47;15.90;99.90
9223;DHT22;7557;51.698;3.942;2023-09-30T01:13:15;15.90;99.90
9223;DHT22;7557;51.698;3.942;2023-09-30T01:15:43;16.00;99.90
9223;DHT22;7557;51.698;3.942;2023-09-30T01:18:10;16.00;99.90
9223;DHT22;7557;51.698;3.942;2023-09-30T01:20:38;16.00;99.90
9223;DHT22;7557;51.698;3.942;2023-09-30T01:23:07;16.00;99.90
9223;DHT22;7557;51.698;3.942;2023-09-30T01:25:38;16.00;99.90
9223;DHT22;7557;51.698;3.942;2023-09-30T01:28:08;16.00;99.90
9223;DHT22;7557;51.698;3.942;2023-09-30T01:30:36;16.00;99.90
9223;DHT22;7557;51.698;3.942;2023-09-30T01:33:03;16.00;99.90
9223;DHT22;7557;51.698;3.942;2023-09-30T01:35:33;16.00;99.90
9223;DHT22;7557;51.698;3.942;2023-09-30T01:38:00;16.00;99.90
9223;DHT22;7557;51.698;3.942;2023-09-30T01:40:29;16.00;99.90
9223;DHT22;7557;51.698;3.942;2023-09-30T01:42:56;16.10;99.90
9223;DHT22;7557;51.698;3.942;2023-09-30T01:45:23;16.10;99.90
9223;DHT22;7557;51.698;3.942;2023-09-30T01:47:51;16.10;99.90
9223;DHT22;7557;51.698;3.942;2023-09-30T01:50:18;16.10;99.90
9223;DHT22;7557;51.698;3.942;2023-09-30T01:52:45;16.10;99.90
9223;DHT22;7557;51.698;3.942;2023-09-30T01:55:12;16.10;99.90
9223;DHT22;7557;51.698;3.942;2023-09-30T01:57:41;16.10;99.90
9223;DHT22;7557;51.698;3.942;2023-09-30T02:00:09;16.10;99.90
9223;DHT22;7557;51.698;3.942;2023-09-30T02:02:38;16.20;99.90
9223;DHT22;7557;51.698;3.942;2023-09-30T02:05:08;16.20;99.90
9223;DHT22;7557;51.698;3.942;2023-09-30T02:07:35;16.20;99.90
9223;DHT22;7557;51.698;3.942;2023-09-30T02:10:02;16.10;99.90
9223;DHT22;7557;51.698;3.942;2023-09-30T02:12:30;16.10;99.90
9223;DHT22;7557;51.698;3.942;2023-09-30T02:14:59;16.10;99.90
9223;DHT22;7557;51.698;3.942;2023-09-30T02:17:26;16.20;99.90
9223;DHT22;7557;51.698;3.942;2023-09-30T02:19:53;16.10;99.90
9223;DHT22;7557;51.698;3.942;2023-09-30T02:22:20;16.10;99.90
9223;DHT22;7557;51.698;3.942;2023-09-30T02:24:49;16.10;99.90
9223;DHT22;7557;51.698;3.942;2023-09-30T02:27:17;16.10;99.90
9223;DHT22;7557;51.698;3.942;2023-09-30T02:29:44;16.10;99.90
9223;DHT22;7557;51.698;3.942;2023-09-30T02:32:11;16.00;99.90
9223;DHT22;7557;51.698;3.942;2023-09-30T02:34:39;16.00;99.90
9223;DHT22;7557;51.698;3.942;2023-09-30T02:37:08;15.90;99.90
9223;DHT22;7557;51.698;3.942;2023-09-30T02:39:36;15.90;99.90
9223;DHT22;7557;51.698;3.942;2023-09-30T02:42:04;15.80;99.90
9223;DHT22;7557;51.698;3.942;2023-09-30T02:44:31;15.80;99.90
9223;DHT22;7557;51.698;3.942;2023-09-30T02:46:58;15.90;99.90
9223;DHT22;7557;51.698;3.942;2023-09-30T02:49:27;15.90;99.90
9223;DHT22;7557;51.698;3.942;2023-09-30T02:51:54;15.90;99.90
9223;DHT22;7557;51.698;3.942;2023-09-30T02:54:21;15.90;99.90
9223;DHT22;7557;51.698;3.942;2023-09-30T02:56:48;16.00;99.90
9223;DHT22;7557;51.698;3.942;2023-09-30T02:59:15;16.10;99.90
9223;DHT22;7557;51.698;3.942;2023-09-30T03:01:44;16.00;99.90
9223;DHT22;7557;51.698;3.942;2023-09-30T03:04:12;16.00;99.90
9223;DHT22;7557;51.698;3.942;2023-09-30T03:06:41;16.00;99.90
9223;DHT22;7557;51.698;3.942;2023-09-30T03:09:10;16.00;99.90
9223;DHT22;7557;51.698;3.942;2023-09-30T03:11:40;16.00;99.90
9223;DHT22;7557;51.698;3.942;2023-09-30T03:14:09;15.90;99.90
9223;DHT22;7557;51.698;3.942;2023-09-30T03:16:36;15.90;99.90
9223;DHT22;7557;51.698;3.942;2023-09-30T03:19:06;15.90;99.90
9223;DHT22;7557;51.698;3.942;2023-09-30T03:21:34;15.90;99.90
9223;DHT22;7557;51.698;3.942;2023-09-30T03:24:04;15.90;99.90
9223;DHT22;7557;51.698;3.942;2023-09-30T03:26:33;15.80;99.90
9223;DHT22;7557;51.698;3.942;2023-09-30T03:29:01;15.80;99.90
9223;DHT22;7557;51.698;3.942;2023-09-30T03:31:29;15.80;99.90
9223;DHT22;7557;51.698;3.942;2023-09-30T03:33:57;15.80;99.90
9223;DHT22;7557;51.698;3.942;2023-09-30T03:36:24;15.80;99.90
9223;DHT22;7557;51.698;3.942;2023-09-30T03:38:51;15.80;99.90
9223;DHT22;7557;51.698;3.942;2023-09-30T03:41:21;15.80;99.90
9223;DHT22;7557;51.698;3.942;2023-09-30T03:43:48;15.80;99.90
9223;DHT22;7557;51.698;3.942;2023-09-30T03:46:16;15.80;99.90
9223;DHT22;7557;51.698;3.942;2023-09-30T03:48:44;15.80;99.90
9223;DHT22;7557;51.698;3.942;2023-09-30T03:51:12;15.80;99.90
9223;DHT22;7557;51.698;3.942;2023-09-30T03:53:39;15.80;99.90
9223;DHT22;7557;51.698;3.942;2023-09-30T03:56:07;15.80;99.90
9223;DHT22;7557;51.698;3.942;2023-09-30T03:58:39;15.80;99.90
9223;DHT22;7557;51.698;3.942;2023-09-30T04:01:07;15.80;99.90
9223;DHT22;7557;51.698;3.942;2023-09-30T04:03:37;15.90;99.90
9223;DHT22;7557;51.698;3.942;2023-09-30T04:06:05;15.90;99.90
9223;DHT22;7557;51.698;3.942;2023-09-30T04:08:33;15.90;99.90
9223;DHT22;7557;51.698;3.942;2023-09-30T04:11:00;15.90;99.90
9223;DHT22;7557;51.698;3.942;2023-09-30T04:13:29;15.90;99.90
9223;DHT22;7557;51.698;3.942;2023-09-30T04:15:57;15.90;99.90
9223;DHT22;7557;51.698;3.942;2023-09-30T04:18:25;15.90;99.90
9223;DHT22;7557;51.698;3.942;2023-09-30T04:20:53;15.80;99.90
9223;DHT22;7557;51.698;3.942;2023-09-30T04:23:21;15.80;99.90
9223;DHT22;7557;51.698;3.942;2023-09-30T04:25:48;15.80;99.90
9223;DHT22;7557;51.698;3.942;2023-09-30T04:28:16;15.80;99.90
9223;DHT22;7557;51.698;3.942;2023-09-30T04:30:47;15.80;99.90
9223;DHT22;7557;51.698;3.942;2023-09-30T04:33:17;15.70;99.90
9223;DHT22;7557;51.698;3.942;2023-09-30T04:35:47;15.70;99.90
9223;DHT22;7557;51.698;3.942;2023-09-30T04:38:15;15.80;99.90
9223;DHT22;7557;51.698;3.942;2023-09-30T04:40:42;15.80;99.90
9223;DHT22;7557;51.698;3.942;2023-09-30T04:43:10;15.70;99.90
9223;DHT22;7557;51.698;3.942;2023-09-30T04:45:38;15.70;99.90
9223;DHT22;7557;51.698;3.942;2023-09-30T04:48:05;15.70;99.90
9223;DHT22;7557;51.698;3.942;2023-09-30T04:50:34;15.70;99.90
9223;DHT22;7557;51.698;3.942;2023-09-30T04:53:02;15.70;99.90
9223;DHT22;7557;51.698;3.942;2023-09-30T04:55:29;15.70;99.90
9223;DHT22;7557;51.698;3.942;2023-09-30T04:57:57;15.60;99.90
9223;DHT22;7557;51.698;3.942;2023-09-30T05:00:24;15.60;99.90
9223;DHT22;7557;51.698;3.942;2023-09-30T05:02:51;15.60;99.90
9223;DHT22;7557;51.698;3.942;2023-09-30T05:05:20;15.60;99.90
9223;DHT22;7557;51.698;3.942;2023-09-30T05:07:49;15.60;99.90
9223;DHT22;7557;51.698;3.942;2023-09-30T05:10:16;15.60;99.90
9223;DHT22;7557;51.698;3.942;2023-09-30T05:12:45;15.60;99.90
9223;DHT22;7557;51.698;3.942;2023-09-30T05:15:12;15.60;99.90
9223;DHT22;7557;51.698;3.942;2023-09-30T05:17:41;15.60;99.90
9223;DHT22;7557;51.698;3.942;2023-09-30T05:20:10;15.60;99.90
9223;DHT22;7557;51.698;3.942;2023-09-30T05:22:38;15.60;99.90
9223;DHT22;7557;51.698;3.942;2023-09-30T05:25:08;15.60;99.90
9223;DHT22;7557;51.698;3.942;2023-09-30T05:27:36;15.70;99.90
9223;DHT22;7557;51.698;3.942;2023-09-30T05:30:04;15.70;99.90
9223;DHT22;7557;51.698;3.942;2023-09-30T05:32:32;15.70;99.90
9223;DHT22;7557;51.698;3.942;2023-09-30T05:35:00;15.60;99.90
9223;DHT22;7557;51.698;3.942;2023-09-30T05:37:28;15.60;99.90
9223;DHT22;7557;51.698;3.942;2023-09-30T05:39:56;15.60;99.90
9223;DHT22;7557;51.698;3.942;2023-09-30T05:42:25;15.60;99.90
9223;DHT22;7557;51.698;3.942;2023-09-30T05:44:53;15.70;99.90
9223;DHT22;7557;51.698;3.942;2023-09-30T05:47:20;15.70;99.90
9223;DHT22;7557;51.698;3.942;2023-09-30T05:49:47;15.70;99.90
9223;DHT22;7557;51.698;3.942;2023-09-30T05:52:15;15.70;99.90
9223;DHT22;7557;51.698;3.942;2023-09-30T05:54:42;15.70;99.90
9223;DHT22;7557;51.698;3.942;2023-09-30T05:57:09;15.70;99.90
9223;DHT22;7557;51.698;3.942;2023-09-30T05:59:38;15.60;99.90
9223;DHT22;7557;51.698;3.942;2023-09-30T06:02:05;15.60;99.90
9223;DHT22;7557;51.698;3.942;2023-09-30T06:04:33;15.60;99.90
9223;DHT22;7557;51.698;3.942;2023-09-30T06:07:00;15.70;99.90
9223;DHT22;7557;51.698;3.942;2023-09-30T06:09:28;15.70;99.90
9223;DHT22;7557;51.698;3.942;2023-09-30T06:11:56;15.70;99.90
9223;DHT22;7557;51.698;3.942;2023-09-30T06:14:23;15.70;99.90
9223;DHT22;7557;51.698;3.942;2023-09-30T06:16:55;15.70;99.90
9223;DHT22;7557;51.698;3.942;2023-09-30T06:19:22;15.70;99.90
9223;DHT22;7557;51.698;3.942;2023-09-30T06:21:51;15.70;99.90
9223;DHT22;7557;51.698;3.942;2023-09-30T06:24:19;15.70;99.90
9223;DHT22;7557;51.698;3.942;2023-09-30T06:26:46;15.70;99.90
9223;DHT22;7557;51.698;3.942;2023-09-30T06:29:14;15.70;99.90
9223;DHT22;7557;51.698;3.942;2023-09-30T06:31:42;15.70;99.90
9223;DHT22;7557;51.698;3.942;2023-09-30T06:34:10;15.70;99.90
9223;DHT22;7557;51.698;3.942;2023-09-30T06:36:38;15.80;99.90
9223;DHT22;7557;51.698;3.942;2023-09-30T06:39:06;15.80;99.90
9223;DHT22;7557;51.698;3.942;2023-09-30T06:41:34;15.90;99.90
9223;DHT22;7557;51.698;3.942;2023-09-30T06:44:02;15.90;99.90
9223;DHT22;7557;51.698;3.942;2023-09-30T06:46:30;15.90;99.90
9223;DHT22;7557;51.698;3.942;2023-09-30T06:48:58;15.90;99.90
9223;DHT22;7557;51.698;3.942;2023-09-30T06:51:27;16.00;99.90
9223;DHT22;7557;51.698;3.942;2023-09-30T06:53:54;16.00;99.90
9223;DHT22;7557;51.698;3.942;2023-09-30T06:56:21;16.10;99.90
9223;DHT22;7557;51.698;3.942;2023-09-30T06:58:48;16.10;99.90
9223;DHT22;7557;51.698;3.942;2023-09-30T07:01:16;16.10;99.90
9223;DHT22;7557;51.698;3.942;2023-09-30T07:03:44;16.20;99.90
9223;DHT22;7557;51.698;3.942;2023-09-30T07:06:11;16.20;99.90
9223;DHT22;7557;51.698;3.942;2023-09-30T07:08:40;16.30;99.90
9223;DHT22;7557;51.698;3.942;2023-09-30T07:11:07;16.30;99.90
9223;DHT22;7557;51.698;3.942;2023-09-30T07:13:36;16.40;99.90
9223;DHT22;7557;51.698;3.942;2023-09-30T07:16:04;16.40;99.90
9223;DHT22;7557;51.698;3.942;2023-09-30T07:18:31;16.40;99.90
9223;DHT22;7557;51.698;3.942;2023-09-30T07:20:58;16.50;99.90
9223;DHT22;7557;51.698;3.942;2023-09-30T07:23:25;16.50;99.90
9223;DHT22;7557;51.698;3.942;2023-09-30T07:25:58;16.50;99.90
9223;DHT22;7557;51.698;3.942;2023-09-30T07:28:25;16.60;99.90
9223;DHT22;7557;51.698;3.942;2023-09-30T07:30:52;16.60;99.90
9223;DHT22;7557;51.698;3.942;2023-09-30T07:33:20;16.60;99.90
9223;DHT22;7557;51.698;3.942;2023-09-30T07:35:48;16.70;99.90
9223;DHT22;7557;51.698;3.942;2023-09-30T07:38:15;16.70;99.90
9223;DHT22;7557;51.698;3.942;2023-09-30T07:40:42;16.80;99.90
9223;DHT22;7557;51.698;3.942;2023-09-30T07:43:11;16.80;99.90
9223;DHT22;7557;51.698;3.942;2023-09-30T07:45:39;16.80;99.90
9223;DHT22;7557;51.698;3.942;2023-09-30T07:48:09;16.80;99.90
9223;DHT22;7557;51.698;3.942;2023-09-30T07:50:36;16.90;99.90
9223;DHT22;7557;51.698;3.942;2023-09-30T07:53:04;17.00;99.90
9223;DHT22;7557;51.698;3.942;2023-09-30T07:55:32;17.00;99.90
9223;DHT22;7557;51.698;3.942;2023-09-30T07:57:59;17.10;99.90
9223;DHT22;7557;51.698;3.942;2023-09-30T08:00:28;17.30;99.90
9223;DHT22;7557;51.698;3.942;2023-09-30T08:02:55;17.40;99.90
9223;DHT22;7557;51.698;3.942;2023-09-30T08:05:24;17.50;99.90
9223;DHT22;7557;51.698;3.942;2023-09-30T08:07:52;17.60;99.90
9223;DHT22;7557;51.698;3.942;2023-09-30T08:10:20;17.70;99.90
9223;DHT22;7557;51.698;3.942;2023-09-30T08:12:47;17.80;99.90
9223;DHT22;7557;51.698;3.942;2023-09-30T08:15:16;17.90;99.90
9223;DHT22;7557;51.698;3.942;2023-09-30T08:17:44;18.20;99.90
9223;DHT22;7557;51.698;3.942;2023-09-30T08:20:12;18.30;99.90
9223;DHT22;7557;51.698;3.942;2023-09-30T08:22:39;18.50;99.90
9223;DHT22;7557;51.698;3.942;2023-09-30T08:25:08;18.70;99.90
9223;DHT22;7557;51.698;3.942;2023-09-30T08:27:36;18.90;99.90
9223;DHT22;7557;51.698;3.942;2023-09-30T08:30:04;19.00;99.90
9223;DHT22;7557;51.698;3.942;2023-09-30T08:32:33;19.20;99.90
9223;DHT22;7557;51.698;3.942;2023-09-30T08:35:02;19.40;99.90
9223;DHT22;7557;51.698;3.942;2023-09-30T08:37:29;19.60;99.90
9223;DHT22;7557;51.698;3.942;2023-09-30T08:39:57;19.80;99.90
9223;DHT22;7557;51.698;3.942;2023-09-30T08:42:27;20.10;99.90
9223;DHT22;7557;51.698;3.942;2023-09-30T08:44:58;20.30;99.90
9223;DHT22;7557;51.698;3.942;2023-09-30T08:47:26;20.40;99.90
9223;DHT22;7557;51.698;3.942;2023-09-30T08:49:54;20.70;99.90
9223;DHT22;7557;51.698;3.942;2023-09-30T08:52:29;21.00;99.90
9223;DHT22;7557;51.698;3.942;2023-09-30T08:54:56;21.30;99.90
9223;DHT22;7557;51.698;3.942;2023-09-30T08:57:24;21.60;99.90
9223;DHT22;7557;51.698;3.942;2023-09-30T08:59:53;21.70;99.90
9223;DHT22;7557;51.698;3.942;2023-09-30T09:02:21;21.90;99.90
9223;DHT22;7557;51.698;3.942;2023-09-30T09:04:48;22.00;99.90
9223;DHT22;7557;51.698;3.942;2023-09-30T09:07:16;22.00;99.90
9223;DHT22;7557;51.698;3.942;2023-09-30T09:10:02;22.20;99.90
9223;DHT22;7557;51.698;3.942;2023-09-30T09:12:30;22.50;99.90
9223;DHT22;7557;51.698;3.942;2023-09-30T09:14:57;22.70;99.90
9223;DHT22;7557;51.698;3.942;2023-09-30T09:17:39;22.80;99.90
9223;DHT22;7557;51.698;3.942;2023-09-30T09:20:09;22.90;99.90
9223;DHT22;7557;51.698;3.942;2023-09-30T09:22:40;23.00;99.90
9223;DHT22;7557;51.698;3.942;2023-09-30T09:25:09;23.00;99.90
9223;DHT22;7557;51.698;3.942;2023-09-30T09:27:37;23.10;99.90
9223;DHT22;7557;51.698;3.942;2023-09-30T09:30:18;23.00;99.90
9223;DHT22;7557;51.698;3.942;2023-09-30T09:33:00;23.00;99.90
9223;DHT22;7557;51.698;3.942;2023-09-30T09:35:29;23.10;99.90
9223;DHT22;7557;51.698;3.942;2023-09-30T09:37:59;23.10;99.90
9223;DHT22;7557;51.698;3.942;2023-09-30T09:40:29;23.10;99.90
9223;DHT22;7557;51.698;3.942;2023-09-30T09:42:57;23.20;99.90
9223;DHT22;7557;51.698;3.942;2023-09-30T09:45:26;23.30;99.90
9223;DHT22;7557;51.698;3.942;2023-09-30T09:47:54;23.50;99.90
9223;DHT22;7557;51.698;3.942;2023-09-30T09:50:22;23.60;99.90
9223;DHT22;7557;51.698;3.942;2023-09-30T09:52:50;23.70;99.90
9223;DHT22;7557;51.698;3.942;2023-09-30T09:55:19;23.60;99.90
9223;DHT22;7557;51.698;3.942;2023-09-30T09:57:49;23.80;99.90
9223;DHT22;7557;51.698;3.942;2023-09-30T10:00:19;23.90;99.90
9223;DHT22;7557;51.698;3.942;2023-09-30T10:02:46;24.00;99.90
9223;DHT22;7557;51.698;3.942;2023-09-30T10:05:15;23.90;99.90
9223;DHT22;7557;51.698;3.942;2023-09-30T10:07:45;23.80;99.90
9223;DHT22;7557;51.698;3.942;2023-09-30T10:10:17;23.80;99.90
9223;DHT22;7557;51.698;3.942;2023-09-30T10:12:45;23.90;99.90
9223;DHT22;7557;51.698;3.942;2023-09-30T10:15:39;23.90;99.90
9223;DHT22;7557;51.698;3.942;2023-09-30T10:18:10;24.00;99.90
9223;DHT22;7557;51.698;3.942;2023-09-30T10:20:42;23.80;99.90
9223;DHT22;7557;51.698;3.942;2023-09-30T10:23:24;23.80;99.90
9223;DHT22;7557;51.698;3.942;2023-09-30T10:25:53;23.80;99.90
9223;DHT22;7557;51.698;3.942;2023-09-30T10:28:39;23.90;99.90
9223;DHT22;7557;51.698;3.942;2023-09-30T10:31:13;24.10;99.90
9223;DHT22;7557;51.698;3.942;2023-09-30T10:34:18;24.20;99.90
9223;DHT22;7557;51.698;3.942;2023-09-30T10:36:47;24.30;99.90
9223;DHT22;7557;51.698;3.942;2023-09-30T10:39:55;24.30;99.90
9223;DHT22;7557;51.698;3.942;2023-09-30T10:42:46;24.40;99.90
9223;DHT22;7557;51.698;3.942;2023-09-30T10:48:38;24.40;99.90
9223;DHT22;7557;51.698;3.942;2023-09-30T10:51:14;24.20;99.90
9223;DHT22;7557;51.698;3.942;2023-09-30T10:53:46;24.10;99.90
9223;DHT22;7557;51.698;3.942;2023-09-30T10:56:14;24.00;99.90
9223;DHT22;7557;51.698;3.942;2023-09-30T10:58:42;23.90;99.90
9223;DHT22;7557;51.698;3.942;2023-09-30T11:01:11;23.80;99.90
9223;DHT22;7557;51.698;3.942;2023-09-30T11:03:40;23.70;99.90
9223;DHT22;7557;51.698;3.942;2023-09-30T11:06:11;23.80;99.90
9223;DHT22;7557;51.698;3.942;2023-09-30T11:08:45;23.80;99.90
9223;DHT22;7557;51.698;3.942;2023-09-30T11:11:13;23.80;99.90
9223;DHT22;7557;51.698;3.942;2023-09-30T11:13:41;23.80;99.90
9223;DHT22;7557;51.698;3.942;2023-09-30T11:16:08;23.90;99.90
9223;DHT22;7557;51.698;3.942;2023-09-30T11:18:36;23.90;99.90
9223;DHT22;7557;51.698;3.942;2023-09-30T11:21:10;23.80;99.90
9223;DHT22;7557;51.698;3.942;2023-09-30T11:23:40;23.80;99.90
9223;DHT22;7557;51.698;3.942;2023-09-30T11:26:08;23.70;99.90
9223;DHT22;7557;51.698;3.942;2023-09-30T11:28:38;23.80;99.90
9223;DHT22;7557;51.698;3.942;2023-09-30T11:31:08;23.80;99.90
9223;DHT22;7557;51.698;3.942;2023-09-30T11:33:50;23.80;99.90
9223;DHT22;7557;51.698;3.942;2023-09-30T11:36:20;23.80;99.90
9223;DHT22;7557;51.698;3.942;2023-09-30T11:38:49;23.80;99.90
9223;DHT22;7557;51.698;3.942;2023-09-30T11:41:18;23.80;99.90
9223;DHT22;7557;51.698;3.942;2023-09-30T11:44:02;23.80;99.90
9223;DHT22;7557;51.698;3.942;2023-09-30T11:46:31;23.90;99.90
9223;DHT22;7557;51.698;3.942;2023-09-30T11:49:00;24.00;99.90
9223;DHT22;7557;51.698;3.942;2023-09-30T11:51:29;23.90;99.90
9223;DHT22;7557;51.698;3.942;2023-09-30T11:53:57;23.80;99.90
9223;DHT22;7557;51.698;3.942;2023-09-30T11:56:25;23.90;99.90
9223;DHT22;7557;51.698;3.942;2023-09-30T11:58:55;24.00;99.90
9223;DHT22;7557;51.698;3.942;2023-09-30T12:01:23;24.00;99.90
9223;DHT22;7557;51.698;3.942;2023-09-30T12:03:52;24.00;99.90
9223;DHT22;7557;51.698;3.942;2023-09-30T12:06:22;24.00;99.90
9223;DHT22;7557;51.698;3.942;2023-09-30T12:08:51;24.00;99.90
9223;DHT22;7557;51.698;3.942;2023-09-30T12:11:19;23.80;99.90
9223;DHT22;7557;51.698;3.942;2023-09-30T12:13:49;23.80;99.90
9223;DHT22;7557;51.698;3.942;2023-09-30T12:16:17;23.80;99.90
9223;DHT22;7557;51.698;3.942;2023-09-30T12:18:45;23.80;99.90
9223;DHT22;7557;51.698;3.942;2023-09-30T12:21:13;23.60;99.80
9223;DHT22;7557;51.698;3.942;2023-09-30T12:23:45;23.50;99.80
9223;DHT22;7557;51.698;3.942;2023-09-30T12:26:16;23.50;99.90
9223;DHT22;7557;51.698;3.942;2023-09-30T12:28:45;23.40;99.90
9223;DHT22;7557;51.698;3.942;2023-09-30T12:31:14;23.40;99.90
9223;DHT22;7557;51.698;3.942;2023-09-30T12:33:41;23.50;99.80
9223;DHT22;7557;51.698;3.942;2023-09-30T12:36:08;23.40;99.80
9223;DHT22;7557;51.698;3.942;2023-09-30T12:38:38;23.40;99.70
9223;DHT22;7557;51.698;3.942;2023-09-30T12:41:06;23.30;99.20
9223;DHT22;7557;51.698;3.942;2023-09-30T12:43:37;23.20;99.30
9223;DHT22;7557;51.698;3.942;2023-09-30T12:46:06;23.10;99.40
9223;DHT22;7557;51.698;3.942;2023-09-30T12:48:34;23.10;99.40
9223;DHT22;7557;51.698;3.942;2023-09-30T12:51:04;23.00;99.40
9223;DHT22;7557;51.698;3.942;2023-09-30T12:53:32;23.00;99.50
9223;DHT22;7557;51.698;3.942;2023-09-30T12:56:00;23.00;99.60
9223;DHT22;7557;51.698;3.942;2023-09-30T12:58:27;23.00;99.70
9223;DHT22;7557;51.698;3.942;2023-09-30T13:00:57;23.00;99.60
9223;DHT22;7557;51.698;3.942;2023-09-30T13:03:24;22.90;99.50
9223;DHT22;7557;51.698;3.942;2023-09-30T13:05:51;22.90;99.70
9223;DHT22;7557;51.698;3.942;2023-09-30T13:08:19;22.80;99.80
9223;DHT22;7557;51.698;3.942;2023-09-30T13:10:47;22.70;99.90
9223;DHT22;7557;51.698;3.942;2023-09-30T13:13:16;22.70;99.90
9223;DHT22;7557;51.698;3.942;2023-09-30T13:15:43;22.80;99.90
9223;DHT22;7557;51.698;3.942;2023-09-30T13:18:12;22.70;99.90
9223;DHT22;7557;51.698;3.942;2023-09-30T13:20:40;22.70;99.90
9223;DHT22;7557;51.698;3.942;2023-09-30T13:23:07;22.70;99.80
9223;DHT22;7557;51.698;3.942;2023-09-30T13:25:34;22.60;99.80
9223;DHT22;7557;51.698;3.942;2023-09-30T13:28:02;22.50;99.60
9223;DHT22;7557;51.698;3.942;2023-09-30T13:30:30;22.40;99.80
9223;DHT22;7557;51.698;3.942;2023-09-30T13:32:58;22.40;99.90
9223;DHT22;7557;51.698;3.942;2023-09-30T13:35:27;22.50;99.90
9223;DHT22;7557;51.698;3.942;2023-09-30T13:37:54;22.40;99.90
9223;DHT22;7557;51.698;3.942;2023-09-30T13:40:21;22.40;99.90
9223;DHT22;7557;51.698;3.942;2023-09-30T13:42:49;22.40;99.90
9223;DHT22;7557;51.698;3.942;2023-09-30T13:45:16;22.40;99.90
9223;DHT22;7557;51.698;3.942;2023-09-30T13:47:44;22.40;99.90
9223;DHT22;7557;51.698;3.942;2023-09-30T13:50:11;22.30;99.80
9223;DHT22;7557;51.698;3.942;2023-09-30T13:52:39;22.30;99.90
9223;DHT22;7557;51.698;3.942;2023-09-30T13:55:07;22.30;99.80
9223;DHT22;7557;51.698;3.942;2023-09-30T13:57:35;22.30;99.90
9223;DHT22;7557;51.698;3.942;2023-09-30T14:00:03;22.30;99.90
9223;DHT22;7557;51.698;3.942;2023-09-30T14:02:32;22.30;99.90
9223;DHT22;7557;51.698;3.942;2023-09-30T14:05:01;22.30;99.90
9223;DHT22;7557;51.698;3.942;2023-09-30T14:07:31;22.20;99.90
9223;DHT22;7557;51.698;3.942;2023-09-30T14:09:59;22.20;99.90
9223;DHT22;7557;51.698;3.942;2023-09-30T14:12:27;22.20;99.90
9223;DHT22;7557;51.698;3.942;2023-09-30T14:14:54;22.20;99.90
9223;DHT22;7557;51.698;3.942;2023-09-30T14:17:21;22.10;99.90
9223;DHT22;7557;51.698;3.942;2023-09-30T14:19:49;22.10;99.90
9223;DHT22;7557;51.698;3.942;2023-09-30T14:22:16;22.10;99.90
9223;DHT22;7557;51.698;3.942;2023-09-30T14:24:44;22.10;99.90
9223;DHT22;7557;51.698;3.942;2023-09-30T14:27:13;22.10;99.90
9223;DHT22;7557;51.698;3.942;2023-09-30T14:29:41;22.10;99.90
9223;DHT22;7557;51.698;3.942;2023-09-30T14:32:09;22.10;99.90
9223;DHT22;7557;51.698;3.942;2023-09-30T14:34:36;22.10;99.90
9223;DHT22;7557;51.698;3.942;2023-09-30T14:37:03;22.00;99.90
9223;DHT22;7557;51.698;3.942;2023-09-30T14:39:31;22.00;99.90
9223;DHT22;7557;51.698;3.942;2023-09-30T14:41:58;21.90;99.90
9223;DHT22;7557;51.698;3.942;2023-09-30T14:44:27;21.90;99.90
9223;DHT22;7557;51.698;3.942;2023-09-30T14:46:54;21.90;99.90
9223;DHT22;7557;51.698;3.942;2023-09-30T14:49:23;21.90;99.90
9223;DHT22;7557;51.698;3.942;2023-09-30T14:51:50;21.80;99.90
9223;DHT22;7557;51.698;3.942;2023-09-30T14:54:17;21.80;99.90
9223;DHT22;7557;51.698;3.942;2023-09-30T14:56:45;21.70;99.90
9223;DHT22;7557;51.698;3.942;2023-09-30T14:59:12;21.60;99.90
9223;DHT22;7557;51.698;3.942;2023-09-30T15:01:42;21.70;99.90
9223;DHT22;7557;51.698;3.942;2023-09-30T15:04:09;21.70;99.90
9223;DHT22;7557;51.698;3.942;2023-09-30T15:06:37;21.60;99.90
9223;DHT22;7557;51.698;3.942;2023-09-30T15:09:04;21.50;99.90
9223;DHT22;7557;51.698;3.942;2023-09-30T15:11:35;21.40;99.90
9223;DHT22;7557;51.698;3.942;2023-09-30T15:14:02;21.40;99.90
9223;DHT22;7557;51.698;3.942;2023-09-30T15:16:31;21.40;99.90
9223;DHT22;7557;51.698;3.942;2023-09-30T15:19:00;21.40;99.90
9223;DHT22;7557;51.698;3.942;2023-09-30T15:21:27;21.30;99.90
9223;DHT22;7557;51.698;3.942;2023-09-30T15:23:55;21.30;99.90
9223;DHT22;7557;51.698;3.942;2023-09-30T15:26:22;21.30;99.90
9223;DHT22;7557;51.698;3.942;2023-09-30T15:28:50;21.30;99.90
9223;DHT22;7557;51.698;3.942;2023-09-30T15:31:17;21.30;99.90
9223;DHT22;7557;51.698;3.942;2023-09-30T15:33:45;21.20;99.90
9223;DHT22;7557;51.698;3.942;2023-09-30T15:36:15;21.20;99.90
9223;DHT22;7557;51.698;3.942;2023-09-30T15:38:43;21.20;99.90
9223;DHT22;7557;51.698;3.942;2023-09-30T15:41:12;21.10;99.90
9223;DHT22;7557;51.698;3.942;2023-09-30T15:43:40;21.20;99.90
9223;DHT22;7557;51.698;3.942;2023-09-30T15:46:08;21.10;99.90
9223;DHT22;7557;51.698;3.942;2023-09-30T15:48:36;21.20;99.90
9223;DHT22;7557;51.698;3.942;2023-09-30T15:51:03;21.20;99.90
9223;DHT22;7557;51.698;3.942;2023-09-30T15:53:32;21.20;99.90
9223;DHT22;7557;51.698;3.942;2023-09-30T15:56:01;21.20;99.90
9223;DHT22;7557;51.698;3.942;2023-09-30T15:58:29;21.10;99.90
9223;DHT22;7557;51.698;3.942;2023-09-30T16:00:56;21.00;99.90
9223;DHT22;7557;51.698;3.942;2023-09-30T16:03:24;21.00;99.90
9223;DHT22;7557;51.698;3.942;2023-09-30T16:05:51;21.00;99.90
9223;DHT22;7557;51.698;3.942;2023-09-30T16:08:18;21.00;99.90
9223;DHT22;7557;51.698;3.942;2023-09-30T16:10:47;21.00;99.90
9223;DHT22;7557;51.698;3.942;2023-09-30T16:13:15;21.10;99.90
9223;DHT22;7557;51.698;3.942;2023-09-30T16:15:42;21.10;99.90